Time;durP1;ratioP1;P1;durP2;ratioP2;P2;SDS_P1;SDS_P2;PMS_P1;PMS_P2;Temp;Humidity;BMP_temperature;BMP_pressure;BME280_temperature;BME280_humidity;BME280_pressure;Samples;Min_cycle;Max_cycle;Signal;HPM_P1;HPM_P2
2021/09/29 00:00:05;;;;;;;;;;;17.00;94.20;17.00;100017.00;;;;347333;28;90722;-90
2021/09/29 00:00:18;;;;;;;;;;;17.00;94.20;16.90;100011.00;;;;344323;28;87753;-90
2021/09/29 00:00:29;;;;;;;;;;;16.90;94.00;17.00;100020.00;;;;345696;28;90079;-90
2021/09/29 00:00:41;;;;;;;;;;;16.90;94.10;16.90;100012.00;;;;345641;28;87728;-90
2021/09/29 00:00:53;;;;;;;;;;;16.90;94.00;16.90;100011.00;;;;348637;27;90981;-90
2021/09/29 00:01:08;;;;;;;;;;;16.90;94.00;16.90;100019.00;;;;345733;28;87156;-90
2021/09/29 00:01:20;;;;;;;;;;;16.90;94.10;16.90;100020.00;;;;344415;28;91013;-90
2021/09/29 00:01:32;;;;;;;;;;;16.90;94.10;16.90;100021.00;;;;347128;28;87786;-90
2021/09/29 00:01:44;;;;;;;;;;;16.80;94.10;16.90;100024.00;;;;347272;28;90969;-90
2021/09/29 00:01:56;;;;;;;;;;;16.80;94.20;16.90;100015.00;;;;348370;27;87066;-90
2021/09/29 00:02:08;;;;;;;;;;;16.80;94.30;16.90;100012.00;;;;345754;28;89690;-90
2021/09/29 00:02:20;;;;;;;;;;;16.90;94.30;17.00;100022.00;;;;345695;28;88112;-90
2021/09/29 00:02:32;;;;;;;;;;;16.80;94.20;17.00;100007.00;;;;346246;28;90598;-90
2021/09/29 00:02:44;;;;;;;;;;;16.80;94.20;17.00;100012.00;;;;344529;28;88075;-90
2021/09/29 00:02:56;;;;;;;;;;;16.80;94.10;17.00;100013.00;;;;345956;28;90765;-89
2021/09/29 00:03:08;;;;;;;;;;;16.80;94.20;17.00;100013.00;;;;344194;28;86897;-90
2021/09/29 00:03:19;;;;;;;;;;;16.90;94.30;17.00;100015.00;;;;347257;28;90812;-90
2021/09/29 00:03:31;;;;;;;;;;;16.80;94.20;17.00;100016.00;;;;347249;27;87994;-90
2021/09/29 00:03:43;;;;;;;;;;;16.90;94.30;17.00;100009.00;;;;345907;28;89588;-90
2021/09/29 00:03:55;;;;;;;;;;;16.90;94.20;17.00;100025.00;;;;345638;28;87139;-90
2021/09/29 00:04:07;;;;;;;;;;;16.90;94.30;17.00;100016.00;;;;345918;28;90864;-89
2021/09/29 00:04:18;;;;;;;;;;;16.80;94.30;17.00;100012.00;;;;347069;28;87144;-90
2021/09/29 00:04:30;;;;;;;;;;;16.90;94.30;16.90;100022.00;;;;347375;28;88980;-90
2021/09/29 00:04:42;;;;;;;;;;;16.80;94.30;16.90;100023.00;;;;347118;28;88174;-90
2021/09/29 00:04:54;;;;;;;;;;;16.80;94.30;17.00;100018.00;;;;345995;28;89660;-90
2021/09/29 00:05:06;;;;;;;;;;;16.90;94.40;17.00;100019.00;;;;347139;28;87749;-90
2021/09/29 00:05:18;;;;;;;;;;;16.90;94.40;17.00;100016.00;;;;347352;28;89626;-89
2021/09/29 00:05:30;;;;;;;;;;;16.90;94.30;17.10;100028.00;;;;347152;28;86945;-90
2021/09/29 00:05:42;;;;;;;;;;;16.80;94.30;17.20;100014.00;;;;345452;28;91059;-90
2021/09/29 00:05:53;;;;;;;;;;;16.90;94.40;17.20;100021.00;;;;345664;28;87667;-90
2021/09/29 00:06:05;;;;;;;;;;;16.90;94.30;17.20;100027.00;;;;347354;28;90839;-90
2021/09/29 00:06:17;;;;;;;;;;;16.90;94.20;17.20;100012.00;;;;348617;27;86755;-91
2021/09/29 00:06:29;;;;;;;;;;;16.90;94.20;17.20;100011.00;;;;347269;28;89894;-90
2021/09/29 00:06:40;;;;;;;;;;;16.90;94.20;17.20;100014.00;;;;347143;28;86887;-90
2021/09/29 00:06:52;;;;;;;;;;;16.90;94.20;17.10;100017.00;;;;343257;28;91124;-90
2021/09/29 00:07:04;;;;;;;;;;;16.90;94.30;17.20;100017.00;;;;342964;28;88368;-90
2021/09/29 00:07:16;;;;;;;;;;;16.90;94.20;17.20;100016.00;;;;346026;28;89927;-90
2021/09/29 00:07:28;;;;;;;;;;;16.90;94.20;17.20;100017.00;;;;345721;28;88516;-90
2021/09/29 00:07:39;;;;;;;;;;;16.90;94.30;17.10;100023.00;;;;347202;28;90718;-90
2021/09/29 00:07:51;;;;;;;;;;;16.90;94.40;17.10;100022.00;;;;345608;28;87991;-88
2021/09/29 00:08:03;;;;;;;;;;;16.90;94.30;17.30;100017.00;;;;346000;28;90941;-90
2021/09/29 00:08:15;;;;;;;;;;;16.90;94.30;17.30;100014.00;;;;347166;28;86886;-90
2021/09/29 00:08:27;;;;;;;;;;;16.90;94.30;17.20;100020.00;;;;345923;28;89941;-90
2021/09/29 00:08:39;;;;;;;;;;;16.90;94.20;17.20;100020.00;;;;344996;28;88335;-90
2021/09/29 00:08:51;;;;;;;;;;;16.90;94.20;17.20;100021.00;;;;348676;27;90905;-90
2021/09/29 00:09:03;;;;;;;;;;;17.00;94.30;17.10;100022.00;;;;345731;28;86859;-90
2021/09/29 00:09:14;;;;;;;;;;;16.90;94.40;17.10;100016.00;;;;345904;28;89524;-90
2021/09/29 00:09:26;;;;;;;;;;;17.00;94.30;17.10;100018.00;;;;348450;27;87885;-90
2021/09/29 00:09:38;;;;;;;;;;;16.90;94.30;17.10;100022.00;;;;345977;28;89691;-90
2021/09/29 00:09:50;;;;;;;;;;;17.00;94.20;17.10;100017.00;;;;347094;28;86181;-90
2021/09/29 00:10:03;;;;;;;;;;;16.90;94.10;17.10;100021.00;;;;348515;27;89981;-90
2021/09/29 00:10:15;;;;;;;;;;;17.00;94.10;17.20;100019.00;;;;345593;28;87172;-89
2021/09/29 00:10:27;;;;;;;;;;;17.00;94.10;17.20;100022.00;;;;348487;27;89111;-90
2021/09/29 00:10:39;;;;;;;;;;;16.90;94.10;17.20;100017.00;;;;346929;28;87004;-90
2021/09/29 00:10:51;;;;;;;;;;;16.90;94.10;17.20;100013.00;;;;346019;28;88443;-89
2021/09/29 00:11:03;;;;;;;;;;;17.00;94.20;17.10;100015.00;;;;347174;28;86874;-91
2021/09/29 00:11:15;;;;;;;;;;;17.00;94.30;17.10;100013.00;;;;347409;28;90032;-90
2021/09/29 00:11:26;;;;;;;;;;;16.90;94.20;17.10;100014.00;;;;345777;28;87745;-90
2021/09/29 00:11:38;;;;;;;;;;;16.90;94.30;17.10;100008.00;;;;346372;28;90764;-90
2021/09/29 00:11:50;;;;;;;;;;;16.90;94.30;17.20;100017.00;;;;346959;28;88757;-90
2021/09/29 00:12:02;;;;;;;;;;;16.90;94.30;17.20;100016.00;;;;345980;28;89511;-90
2021/09/29 00:12:14;;;;;;;;;;;17.00;94.30;17.20;100018.00;;;;345755;28;87531;-90
2021/09/29 00:12:26;;;;;;;;;;;16.90;94.20;17.20;100020.00;;;;345928;28;90355;-90
2021/09/29 00:12:38;;;;;;;;;;;16.90;94.20;17.20;100013.00;;;;348430;27;87027;-90
2021/09/29 00:12:50;;;;;;;;;;;16.90;94.20;17.20;100016.00;;;;347285;28;90859;-90
2021/09/29 00:13:02;;;;;;;;;;;16.90;94.20;17.20;100020.00;;;;344360;28;86920;-90
2021/09/29 00:13:13;;;;;;;;;;;17.00;94.30;17.20;100021.00;;;;348683;27;90646;-90
2021/09/29 00:13:26;;;;;;;;;;;16.90;94.20;17.20;100014.00;;;;345719;28;88190;-90
2021/09/29 00:13:38;;;;;;;;;;;16.90;94.20;17.20;100010.00;;;;344619;28;89360;-90
2021/09/29 00:13:49;;;;;;;;;;;16.90;94.20;17.20;100008.00;;;;348335;27;87643;-89
2021/09/29 00:14:01;;;;;;;;;;;17.00;94.20;17.30;100019.00;;;;346014;28;90729;-89
2021/09/29 00:14:13;;;;;;;;;;;16.90;94.20;17.40;100018.00;;;;348397;27;91231;-90
2021/09/29 00:14:25;;;;;;;;;;;17.00;94.20;17.40;100018.00;;;;348502;27;95080;-90
2021/09/29 00:14:37;;;;;;;;;;;17.00;94.20;17.30;100016.00;;;;348090;27;92245;-90
2021/09/29 00:14:49;;;;;;;;;;;17.00;94.20;17.20;100016.00;;;;347213;28;96136;-90
2021/09/29 00:15:00;;;;;;;;;;;17.00;94.20;17.10;100012.00;;;;344178;28;91964;-90
2021/09/29 00:15:15;;;;;;;;;;;17.00;94.30;17.10;100007.00;;;;348515;27;96079;-90
2021/09/29 00:15:27;;;;;;;;;;;17.00;94.30;17.20;100018.00;;;;346788;28;92028;-90
2021/09/29 00:15:39;;;;;;;;;;;17.00;94.50;17.10;100017.00;;;;347180;28;95061;-90
2021/09/29 00:15:52;;;;;;;;;;;17.00;94.50;17.10;100016.00;;;;348242;27;92166;-90
2021/09/29 00:16:04;;;;;;;;;;;17.00;94.50;17.10;100018.00;;;;348584;27;95489;-90
2021/09/29 00:16:16;;;;;;;;;;;17.00;94.40;17.10;100022.00;;;;346937;28;91242;-90
2021/09/29 00:16:28;;;;;;;;;;;17.00;94.50;17.10;100017.00;;;;347067;28;94933;-90
2021/09/29 00:16:40;;;;;;;;;;;16.90;94.50;17.10;100022.00;;;;345550;28;92165;-90
2021/09/29 00:16:51;;;;;;;;;;;16.90;94.50;17.10;100022.00;;;;348377;27;96215;-90
2021/09/29 00:17:03;;;;;;;;;;;17.00;94.60;17.10;100020.00;;;;344126;28;91960;-90
2021/09/29 00:17:15;;;;;;;;;;;17.00;94.50;17.20;100021.00;;;;345893;28;94465;-90
2021/09/29 00:17:27;;;;;;;;;;;16.90;94.40;17.20;100020.00;;;;345539;28;92124;-91
2021/09/29 00:17:45;;;;;;;;;;;16.90;94.30;17.20;100020.00;;;;346206;28;94885;-90
2021/09/29 00:17:57;;;;;;;;;;;17.00;94.30;17.20;100021.00;;;;346888;27;92181;-90
2021/09/29 00:18:08;;;;;;;;;;;17.00;94.30;17.20;100019.00;;;;347171;28;95956;-90
2021/09/29 00:18:20;;;;;;;;;;;17.00;94.30;17.20;100023.00;;;;346948;28;91220;-90
2021/09/29 00:18:32;;;;;;;;;;;17.00;94.30;17.20;100021.00;;;;348329;27;95271;-90
2021/09/29 00:18:44;;;;;;;;;;;17.00;94.30;17.20;100017.00;;;;345600;28;91851;-90
2021/09/29 00:18:56;;;;;;;;;;;17.00;94.40;17.10;100016.00;;;;345816;28;94684;-90
2021/09/29 00:19:08;;;;;;;;;;;17.00;94.40;17.10;100024.00;;;;345510;28;91958;-90
2021/09/29 00:19:20;;;;;;;;;;;17.00;94.40;17.10;100020.00;;;;344343;28;95504;-90
2021/09/29 00:19:32;;;;;;;;;;;16.90;94.40;17.20;100020.00;;;;345542;28;91944;-90
2021/09/29 00:19:43;;;;;;;;;;;17.00;94.40;17.20;100020.00;;;;347031;28;95245;-90
2021/09/29 00:19:55;;;;;;;;;;;17.00;94.40;17.20;100017.00;;;;344088;28;92020;-90
2021/09/29 00:20:07;;;;;;;;;;;17.00;94.40;17.20;100023.00;;;;347138;28;96306;-90
2021/09/29 00:20:19;;;;;;;;;;;17.00;94.40;17.30;100020.00;;;;344089;28;91214;-90
2021/09/29 00:20:31;;;;;;;;;;;17.00;94.50;17.30;100022.00;;;;345732;28;93339;-90
2021/09/29 00:20:43;;;;;;;;;;;17.00;94.40;17.30;100014.00;;;;347950;27;92150;-90
2021/09/29 00:20:55;;;;;;;;;;;17.00;94.40;17.20;100012.00;;;;347161;28;94601;-90
2021/09/29 00:21:08;;;;;;;;;;;17.00;94.40;17.20;100020.00;;;;346895;28;91122;-90
2021/09/29 00:21:20;;;;;;;;;;;17.00;94.40;17.10;100015.00;;;;347147;28;95866;-90
2021/09/29 00:21:32;;;;;;;;;;;17.00;94.40;17.10;100012.00;;;;346907;28;91876;-90
2021/09/29 00:21:44;;;;;;;;;;;17.00;94.40;17.10;100014.00;;;;345778;28;94675;-90
2021/09/29 00:21:56;;;;;;;;;;;17.00;94.30;17.10;100013.00;;;;345490;28;92001;-90
2021/09/29 00:22:08;;;;;;;;;;;17.00;94.30;17.20;100018.00;;;;345612;28;96218;-90
2021/09/29 00:22:19;;;;;;;;;;;17.00;94.30;17.10;100013.00;;;;342903;28;90414;-90
2021/09/29 00:22:31;;;;;;;;;;;17.00;94.20;17.10;100014.00;;;;347140;28;94045;-90
2021/09/29 00:22:43;;;;;;;;;;;17.00;94.20;17.20;100010.00;;;;346888;27;91196;-90
2021/09/29 00:22:55;;;;;;;;;;;17.00;94.30;17.20;100004.00;;;;347173;28;95985;-90
2021/09/29 00:23:07;;;;;;;;;;;17.00;94.20;17.20;100016.00;;;;346854;28;91136;-90
2021/09/29 00:23:18;;;;;;;;;;;17.00;94.30;17.20;100014.00;;;;347152;28;94458;-90
2021/09/29 00:23:30;;;;;;;;;;;17.00;94.40;17.10;100014.00;;;;345565;28;91166;-90
2021/09/29 00:23:42;;;;;;;;;;;17.00;94.40;17.10;100017.00;;;;347122;28;96162;-90
2021/09/29 00:23:54;;;;;;;;;;;17.00;94.40;17.10;100017.00;;;;346797;28;92170;-90
2021/09/29 00:24:06;;;;;;;;;;;17.00;94.40;17.10;100015.00;;;;345893;28;95870;-90
2021/09/29 00:24:18;;;;;;;;;;;17.00;94.40;17.10;100018.00;;;;347207;27;91261;-90
2021/09/29 00:24:29;;;;;;;;;;;17.00;94.40;17.00;100010.00;;;;340997;28;95158;-90
2021/09/29 00:24:41;;;;;;;;;;;16.90;94.30;17.00;100014.00;;;;337509;28;91826;-90
2021/09/29 00:24:53;;;;;;;;;;;17.00;94.30;17.00;100014.00;;;;337639;28;96058;-90
2021/09/29 00:25:06;;;;;;;;;;;16.90;94.30;17.00;100009.00;;;;339989;28;92181;-90
2021/09/29 00:25:18;;;;;;;;;;;17.00;94.40;17.10;100013.00;;;;346015;28;94488;-89
2021/09/29 00:25:30;;;;;;;;;;;17.00;94.40;17.20;100017.00;;;;346976;28;92143;-91
2021/09/29 00:25:41;;;;;;;;;;;17.00;94.40;17.20;100021.00;;;;338988;28;96040;-90
2021/09/29 00:25:53;;;;;;;;;;;16.90;94.40;17.10;100022.00;;;;342945;28;92066;-90
2021/09/29 00:26:05;;;;;;;;;;;17.00;94.50;17.20;100020.00;;;;340366;28;94793;-90
2021/09/29 00:26:17;;;;;;;;;;;17.00;94.40;17.20;100021.00;;;;338929;28;91196;-90
2021/09/29 00:26:29;;;;;;;;;;;17.00;94.40;17.10;100017.00;;;;338963;28;95183;-91
2021/09/29 00:26:40;;;;;;;;;;;16.90;94.40;17.10;100014.00;;;;340212;28;92090;-90
2021/09/29 00:26:52;;;;;;;;;;;16.90;94.50;17.10;100022.00;;;;347421;28;94822;-90
2021/09/29 00:27:04;;;;;;;;;;;17.00;94.70;17.10;100009.00;;;;337619;28;91208;-90
2021/09/29 00:27:16;;;;;;;;;;;17.00;94.40;17.10;100012.00;;;;339065;28;94667;-89
2021/09/29 00:27:28;;;;;;;;;;;17.00;94.40;17.20;100019.00;;;;340172;28;91961;-90
2021/09/29 00:27:40;;;;;;;;;;;16.90;94.60;17.20;100016.00;;;;339035;28;95861;-90
2021/09/29 00:27:52;;;;;;;;;;;17.00;94.40;17.10;100015.00;;;;338766;28;92042;-91
2021/09/29 00:28:04;;;;;;;;;;;17.00;94.60;17.10;100021.00;;;;338925;28;95633;-91
2021/09/29 00:28:16;;;;;;;;;;;16.90;94.50;17.10;100020.00;;;;341440;28;91308;-90
2021/09/29 00:28:28;;;;;;;;;;;16.90;94.50;17.10;100022.00;;;;340294;28;95148;-90
2021/09/29 00:28:39;;;;;;;;;;;17.00;94.60;17.10;100021.00;;;;341458;28;91882;-90
2021/09/29 00:28:51;;;;;;;;;;;16.90;94.60;17.10;100015.00;;;;336209;28;95795;-90
2021/09/29 00:29:03;;;;;;;;;;;16.90;94.60;17.10;100022.00;;;;338687;28;91152;-90
2021/09/29 00:29:15;;;;;;;;;;;16.90;94.60;17.10;100019.00;;;;339000;28;94702;-90
2021/09/29 00:29:27;;;;;;;;;;;16.90;94.50;17.10;100019.00;;;;336220;28;92034;-90
2021/09/29 00:29:40;;;;;;;;;;;16.90;94.50;17.20;100017.00;;;;339058;28;94665;-91
2021/09/29 00:29:54;;;;;;;;;;;17.00;94.50;17.20;100006.00;;;;337266;28;92176;-90
2021/09/29 00:30:07;;;;;;;;;;;17.00;94.60;17.20;100016.00;;;;345709;28;94959;-90
2021/09/29 00:30:19;;;;;;;;;;;17.00;94.70;17.20;100010.00;;;;345605;28;90614;-90
2021/09/29 00:30:36;;;;;;;;;;;17.00;94.70;17.20;100008.00;;;;340290;28;95089;-90
2021/09/29 00:30:51;;;;;;;;;;;17.00;94.70;17.20;100019.00;;;;338821;28;92156;-90
2021/09/29 00:31:05;;;;;;;;;;;17.00;94.70;17.20;100017.00;;;;340057;28;94361;-90
2021/09/29 00:31:44;;;;;;;;;;;17.00;94.70;17.40;100021.00;;;;336357;28;95924;-90
2021/09/29 00:31:56;;;;;;;;;;;17.00;94.80;17.30;100015.00;;;;337305;28;92007;-90
2021/09/29 00:32:08;;;;;;;;;;;17.00;94.80;17.30;100013.00;;;;339002;28;94601;-90
2021/09/29 00:32:20;;;;;;;;;;;17.10;94.70;17.30;100022.00;;;;340155;28;92130;-90
2021/09/29 00:32:34;;;;;;;;;;;17.00;94.70;17.30;100022.00;;;;338730;28;95812;-90
2021/09/29 00:32:46;;;;;;;;;;;17.00;94.80;17.20;100011.00;;;;337438;28;91263;-90
2021/09/29 00:33:02;;;;;;;;;;;17.00;94.80;17.10;100014.00;;;;338931;28;95158;-90
2021/09/29 00:33:17;;;;;;;;;;;17.00;94.90;17.20;100013.00;;;;340105;28;91203;-90
2021/09/29 00:33:30;;;;;;;;;;;17.00;94.90;17.20;100008.00;;;;340358;28;95886;-90
2021/09/29 00:33:46;;;;;;;;;;;17.00;94.80;17.20;100009.00;;;;340077;28;91128;-90
2021/09/29 00:34:06;;;;;;;;;;;17.00;94.90;17.30;100012.00;;;;339014;28;94617;-90
2021/09/29 00:34:35;;;;;;;;;;;17.00;94.90;17.20;100008.00;;;;338801;28;91168;-90
2021/09/29 00:34:47;;;;;;;;;;;17.00;94.90;17.30;100020.00;;;;340352;28;94790;-91
2021/09/29 00:34:59;;;;;;;;;;;17.00;94.90;17.30;100013.00;;;;338641;28;91233;-91
2021/09/29 00:35:13;;;;;;;;;;;17.00;94.90;17.30;100008.00;;;;337614;28;96158;-90
2021/09/29 00:35:25;;;;;;;;;;;17.10;94.90;17.30;100016.00;;;;337583;28;90278;-91
2021/09/29 00:35:37;;;;;;;;;;;17.10;94.90;17.20;100013.00;;;;337726;28;93808;-90
2021/09/29 00:35:48;;;;;;;;;;;17.10;94.90;17.20;100013.00;;;;337223;28;92023;-90
2021/09/29 00:36:00;;;;;;;;;;;17.10;95.00;17.20;100005.00;;;;343263;28;95773;-90
2021/09/29 00:36:12;;;;;;;;;;;17.10;95.10;17.20;100009.00;;;;342970;28;92064;-90
2021/09/29 00:36:25;;;;;;;;;;;17.10;95.10;17.20;100004.00;;;;337758;28;93418;-90
2021/09/29 00:36:39;;;;;;;;;;;17.10;95.30;17.20;100000.00;;;;338539;28;91221;-90
2021/09/29 00:36:51;;;;;;;;;;;17.10;95.10;17.20;100012.00;;;;340346;28;94609;-90
2021/09/29 00:37:03;;;;;;;;;;;17.10;95.10;17.20;100003.00;;;;340124;28;91088;-90
2021/09/29 00:37:15;;;;;;;;;;;17.10;95.10;17.20;100007.00;;;;341639;28;95683;-90
2021/09/29 00:37:27;;;;;;;;;;;17.10;95.10;17.10;100009.00;;;;337498;28;91261;-90
2021/09/29 00:37:39;;;;;;;;;;;17.10;95.20;17.10;100009.00;;;;340355;28;95050;-90
2021/09/29 00:37:51;;;;;;;;;;;17.10;95.20;17.20;100008.00;;;;338676;28;91788;-90
2021/09/29 00:38:03;;;;;;;;;;;17.10;95.10;17.20;100009.00;;;;340255;28;93461;-89
2021/09/29 00:38:14;;;;;;;;;;;17.10;95.30;17.20;100007.00;;;;340179;28;91941;-90
2021/09/29 00:38:30;;;;;;;;;;;17.10;95.40;17.20;100008.00;;;;340332;28;94119;-90
2021/09/29 00:38:42;;;;;;;;;;;17.10;95.40;17.10;100008.00;;;;337517;28;91803;-90
2021/09/29 00:38:54;;;;;;;;;;;17.10;95.30;17.10;100017.00;;;;338962;28;96081;-90
2021/09/29 00:39:06;;;;;;;;;;;17.00;95.40;17.00;100010.00;;;;340186;28;91824;-90
2021/09/29 00:39:19;;;;;;;;;;;17.00;95.40;17.00;100009.00;;;;338977;28;95542;-90
2021/09/29 00:39:31;;;;;;;;;;;17.00;95.40;17.10;100012.00;;;;340170;28;91246;-90
2021/09/29 00:39:43;;;;;;;;;;;17.00;95.40;17.20;100006.00;;;;340191;28;94224;-90
2021/09/29 00:39:56;;;;;;;;;;;17.00;95.40;17.30;100011.00;;;;338768;28;91266;-89
2021/09/29 00:40:08;;;;;;;;;;;17.00;95.40;17.40;100016.00;;;;339032;28;95807;-90
2021/09/29 00:40:20;;;;;;;;;;;17.10;95.40;17.40;100008.00;;;;345870;28;91116;-89
2021/09/29 00:40:32;;;;;;;;;;;17.10;95.40;17.30;100013.00;;;;337643;28;95859;-90
2021/09/29 00:40:43;;;;;;;;;;;17.10;95.60;17.30;100017.00;;;;345642;28;91170;-90
2021/09/29 00:40:55;;;;;;;;;;;17.10;95.50;17.30;100014.00;;;;340345;28;95840;-90
2021/09/29 00:41:07;;;;;;;;;;;17.10;95.50;17.30;100002.00;;;;338743;28;91162;-90
2021/09/29 00:41:19;;;;;;;;;;;17.10;95.60;17.20;100015.00;;;;341715;28;94502;-90
2021/09/29 00:41:31;;;;;;;;;;;17.00;95.70;17.10;100008.00;;;;338811;28;90401;-91
2021/09/29 00:41:45;;;;;;;;;;;17.10;95.60;17.10;100006.00;;;;339033;28;94877;-91
2021/09/29 00:41:57;;;;;;;;;;;17.00;95.60;17.10;100001.00;;;;339915;28;92875;-90
2021/09/29 00:42:08;;;;;;;;;;;17.00;95.60;17.10;100010.00;;;;339023;28;95737;-90
2021/09/29 00:42:20;;;;;;;;;;;17.00;95.70;17.10;100010.00;;;;337345;28;91189;-89
2021/09/29 00:42:32;;;;;;;;;;;17.00;95.60;17.10;100011.00;;;;342964;28;94675;-90
2021/09/29 00:42:44;;;;;;;;;;;17.00;95.60;17.10;100003.00;;;;337421;28;91962;-90
2021/09/29 00:42:56;;;;;;;;;;;17.00;95.60;17.20;100012.00;;;;340305;28;95661;-90
2021/09/29 00:43:08;;;;;;;;;;;17.00;95.50;17.20;100010.00;;;;340060;28;91872;-90
2021/09/29 00:43:19;;;;;;;;;;;17.10;95.50;17.20;100004.00;;;;340317;28;95812;-90
2021/09/29 00:43:31;;;;;;;;;;;17.00;95.80;17.20;100009.00;;;;338759;28;91657;-90
2021/09/29 00:43:43;;;;;;;;;;;17.00;95.40;17.10;100004.00;;;;341687;28;94089;-90
2021/09/29 00:43:55;;;;;;;;;;;17.00;95.70;17.10;100002.00;;;;347168;27;91128;-90
2021/09/29 00:44:07;;;;;;;;;;;17.10;95.70;17.10;100010.00;;;;347419;28;95886;-90
2021/09/29 00:44:19;;;;;;;;;;;17.00;95.70;17.10;100006.00;;;;341409;28;92100;-90
2021/09/29 00:44:31;;;;;;;;;;;17.00;95.70;17.10;100010.00;;;;347371;28;94231;-91
2021/09/29 00:44:42;;;;;;;;;;;17.00;95.70;17.20;100001.00;;;;344235;28;91956;-91
2021/09/29 00:44:54;;;;;;;;;;;17.00;95.60;17.10;100010.00;;;;344625;28;95875;-90
2021/09/29 00:45:06;;;;;;;;;;;17.00;95.60;17.20;100004.00;;;;342973;28;92023;-90
2021/09/29 00:45:18;;;;;;;;;;;17.00;95.60;17.10;100004.00;;;;345850;28;96348;-88
2021/09/29 00:45:30;;;;;;;;;;;17.00;95.70;17.10;100007.00;;;;345676;28;90426;-91
2021/09/29 00:45:42;;;;;;;;;;;17.00;95.70;17.10;100013.00;;;;347437;28;93918;-90
2021/09/29 00:45:54;;;;;;;;;;;17.00;95.60;17.00;100013.00;;;;344327;28;91956;-90
2021/09/29 00:46:06;;;;;;;;;;;17.00;95.70;17.00;100007.00;;;;347354;28;95669;-90
2021/09/29 00:46:18;;;;;;;;;;;17.00;95.70;17.20;100008.00;;;;345675;28;92059;-90
2021/09/29 00:46:30;;;;;;;;;;;17.00;95.70;17.30;100010.00;;;;347311;28;95849;-90
2021/09/29 00:46:42;;;;;;;;;;;17.00;95.60;17.30;100013.00;;;;347151;28;91740;-90
2021/09/29 00:46:54;;;;;;;;;;;17.00;95.60;17.30;100010.00;;;;346007;28;93693;-90
2021/09/29 00:47:06;;;;;;;;;;;17.10;95.70;17.30;100018.00;;;;343033;28;91952;-90
2021/09/29 00:47:18;;;;;;;;;;;17.00;95.90;17.20;100012.00;;;;347381;28;94736;-90
2021/09/29 00:47:32;;;;;;;;;;;17.10;95.90;17.10;100009.00;;;;347295;28;91161;-90
2021/09/29 00:47:44;;;;;;;;;;;17.00;95.80;17.00;100010.00;;;;348744;27;94869;-90
2021/09/29 00:47:55;;;;;;;;;;;17.00;95.80;17.10;100001.00;;;;345575;28;91178;-90
2021/09/29 00:48:07;;;;;;;;;;;17.00;95.90;17.00;100009.00;;;;345915;28;92938;-90
2021/09/29 00:48:19;;;;;;;;;;;17.00;96.00;17.00;100010.00;;;;338726;28;91243;-90
2021/09/29 00:48:31;;;;;;;;;;;17.00;95.90;17.00;100004.00;;;;340289;28;95912;-90
2021/09/29 00:48:42;;;;;;;;;;;17.00;95.90;17.10;100008.00;;;;337466;28;92029;-89
2021/09/29 00:48:54;;;;;;;;;;;17.00;95.80;17.00;100000.00;;;;339018;28;95698;-91
2021/09/29 00:49:06;;;;;;;;;;;17.00;95.80;17.00;100005.00;;;;337363;28;92011;-90
2021/09/29 00:49:18;;;;;;;;;;;17.00;95.80;17.00;100009.00;;;;339011;28;92346;-90
2021/09/29 00:49:29;;;;;;;;;;;17.00;95.90;17.00;100000.00;;;;344403;28;91325;-90
2021/09/29 00:49:41;;;;;;;;;;;17.00;96.00;17.00;100002.00;;;;344634;28;95037;-90
2021/09/29 00:49:53;;;;;;;;;;;17.00;96.00;17.00;100004.00;;;;336039;28;91995;-90
2021/09/29 00:50:06;;;;;;;;;;;17.00;96.00;17.00;100004.00;;;;337700;28;94562;-90
2021/09/29 00:50:18;;;;;;;;;;;17.00;96.00;17.00;100003.00;;;;340047;28;92005;-90
2021/09/29 00:50:29;;;;;;;;;;;17.00;95.90;17.00;100004.00;;;;340238;28;95850;-89
2021/09/29 00:50:41;;;;;;;;;;;17.00;96.00;17.00;100008.00;;;;339966;28;92019;-90
2021/09/29 00:50:54;;;;;;;;;;;17.00;96.00;17.10;100005.00;;;;340414;28;94778;-90
2021/09/29 00:51:06;;;;;;;;;;;17.00;95.90;17.00;100000.00;;;;338518;28;91937;-90
2021/09/29 00:51:17;;;;;;;;;;;16.90;96.10;17.00;99998.00;;;;338930;28;95882;-90
2021/09/29 00:51:29;;;;;;;;;;;16.90;96.00;17.00;99997.00;;;;340128;28;91187;-90
2021/09/29 00:51:41;;;;;;;;;;;16.90;96.00;17.00;100008.00;;;;340340;28;95149;-90
2021/09/29 00:51:53;;;;;;;;;;;16.90;95.90;17.10;99996.00;;;;340058;28;92131;-91
2021/09/29 00:52:05;;;;;;;;;;;16.90;95.90;17.20;99997.00;;;;339005;28;95757;-90
2021/09/29 00:52:16;;;;;;;;;;;16.90;95.90;17.10;100002.00;;;;338758;28;91915;-90
2021/09/29 00:52:28;;;;;;;;;;;16.90;96.00;17.00;99999.00;;;;340212;28;95861;-90
2021/09/29 00:52:40;;;;;;;;;;;16.90;96.00;17.10;99997.00;;;;340072;28;91890;-90
2021/09/29 00:52:52;;;;;;;;;;;16.90;96.00;17.10;100004.00;;;;339023;28;95851;-90
2021/09/29 00:53:04;;;;;;;;;;;16.90;96.00;17.20;100001.00;;;;338649;28;92632;-90
2021/09/29 00:53:17;;;;;;;;;;;16.90;95.90;17.20;100002.00;;;;340411;28;94596;-89
2021/09/29 00:53:29;;;;;;;;;;;16.90;95.80;17.30;99997.00;;;;341050;28;90435;-91
2021/09/29 00:53:41;;;;;;;;;;;17.00;95.80;17.10;100000.00;;;;337728;28;95560;-90
2021/09/29 00:53:53;;;;;;;;;;;17.00;95.80;17.10;100004.00;;;;338750;28;91935;-90
2021/09/29 00:54:05;;;;;;;;;;;17.00;95.80;17.10;100002.00;;;;341676;28;93382;-90
2021/09/29 00:54:17;;;;;;;;;;;16.90;95.80;17.10;100003.00;;;;338773;28;92175;-90
2021/09/29 00:54:29;;;;;;;;;;;17.00;95.90;17.00;99995.00;;;;340190;28;96089;-90
2021/09/29 00:54:41;;;;;;;;;;;16.90;95.80;17.00;99997.00;;;;338766;28;91915;-90
2021/09/29 00:54:54;;;;;;;;;;;16.90;95.80;16.90;100010.00;;;;339022;28;95699;-90
2021/09/29 00:55:08;;;;;;;;;;;16.90;95.90;16.90;100004.00;;;;340099;28;92025;-90
2021/09/29 00:55:20;;;;;;;;;;;17.00;95.90;16.90;100000.00;;;;337635;28;94861;-90
2021/09/29 00:55:32;;;;;;;;;;;17.00;95.90;17.00;100004.00;;;;340245;28;91176;-90
2021/09/29 00:55:44;;;;;;;;;;;16.90;95.90;17.00;99997.00;;;;339040;28;95201;-90
2021/09/29 00:55:55;;;;;;;;;;;16.90;96.00;17.00;100006.00;;;;340060;28;92015;-90
2021/09/29 00:56:07;;;;;;;;;;;16.90;96.00;17.00;99998.00;;;;340207;28;95849;-90
2021/09/29 00:56:20;;;;;;;;;;;16.90;96.10;17.00;100004.00;;;;340160;28;91990;-90
2021/09/29 00:56:32;;;;;;;;;;;16.90;96.00;17.10;100002.00;;;;340377;28;95135;-90
2021/09/29 00:56:46;;;;;;;;;;;16.90;95.90;17.00;99996.00;;;;338741;28;91938;-90
2021/09/29 00:56:58;;;;;;;;;;;16.90;95.90;16.90;99998.00;;;;337716;28;93292;-90
2021/09/29 00:57:10;;;;;;;;;;;16.90;96.00;16.90;99997.00;;;;338722;28;92849;-90
2021/09/29 00:57:22;;;;;;;;;;;16.90;96.00;16.90;100005.00;;;;338988;28;95217;-90
2021/09/29 00:57:34;;;;;;;;;;;16.90;96.00;16.90;100006.00;;;;340211;28;91312;-90
2021/09/29 00:57:45;;;;;;;;;;;16.90;96.10;16.90;100005.00;;;;337631;28;94195;-90
2021/09/29 00:57:57;;;;;;;;;;;16.90;96.10;16.80;100006.00;;;;345852;28;91793;-90
2021/09/29 00:58:09;;;;;;;;;;;16.90;96.00;17.00;100003.00;;;;340311;28;95896;-89
2021/09/29 00:58:21;;;;;;;;;;;16.90;96.00;17.10;100005.00;;;;338659;28;91234;-90
2021/09/29 00:58:32;;;;;;;;;;;16.90;96.00;17.10;100008.00;;;;337546;28;96124;-90
2021/09/29 00:58:44;;;;;;;;;;;16.90;95.90;17.00;100004.00;;;;338789;28;91942;-90
2021/09/29 00:58:56;;;;;;;;;;;16.90;95.90;17.00;100003.00;;;;337645;28;95669;-90
2021/09/29 00:59:08;;;;;;;;;;;16.90;96.00;17.00;100010.00;;;;338754;28;91954;-90
2021/09/29 00:59:20;;;;;;;;;;;16.90;95.90;17.00;100011.00;;;;338929;28;95915;-90
2021/09/29 00:59:32;;;;;;;;;;;16.90;95.80;17.00;100006.00;;;;338847;28;91241;-90
2021/09/29 00:59:44;;;;;;;;;;;16.90;95.90;17.00;100014.00;;;;339028;28;95175;-90
2021/09/29 00:59:55;;;;;;;;;;;16.90;95.90;16.90;100004.00;;;;336082;28;91219;-90